Time;durP1;ratioP1;P1;durP2;ratioP2;P2;SDS_P1;SDS_P2;PMS_P1;PMS_P2;Temp;Humidity;BMP_temperature;BMP_pressure;BME280_temperature;BME280_humidity;BME280_pressure;Samples;Min_cycle;Max_cycle;Signal;HPM_P1;HPM_P2
2021/08/04 00:00:19;;;;;;;2.75;1.65;;;21.30;69.60;;;;;;4209985;28;20056;-57
2021/08/04 00:02:41;;;;;;;2.15;1.40;;;21.30;69.60;;;;;;4210341;28;20464;-52
2021/08/04 00:05:03;;;;;;;2.15;1.40;;;21.30;69.80;;;;;;4210574;28;20508;-53
2021/08/04 00:07:27;;;;;;;1.45;1.33;;;21.30;69.80;;;;;;4210497;28;20494;-52
2021/08/04 00:09:49;;;;;;;1.20;1.20;;;21.30;69.90;;;;;;4210177;28;20063;-50
2021/08/04 00:12:11;;;;;;;1.98;1.40;;;21.30;70.00;;;;;;4210061;28;20055;-49
2021/08/04 00:14:33;;;;;;;4.20;1.50;;;21.30;69.90;;;;;;4210460;28;20048;-50
2021/08/04 00:16:55;;;;;;;1.65;1.55;;;21.20;70.00;;;;;;4210298;28;20058;-48
2021/08/04 00:19:17;;;;;;;1.70;1.60;;;21.20;70.00;;;;;;4194326;28;20064;-48
2021/08/04 00:21:39;;;;;;;2.35;1.85;;;21.20;70.00;;;;;;4192899;28;20045;-51
2021/08/04 00:24:03;;;;;;;4.70;2.00;;;21.20;70.10;;;;;;4193595;28;20044;-51
2021/08/04 00:26:25;;;;;;;3.75;2.03;;;21.20;70.10;;;;;;4193426;28;20048;-52
2021/08/04 00:28:47;;;;;;;2.35;1.88;;;21.20;70.10;;;;;;4193018;28;20748;-52
2021/08/04 00:31:09;;;;;;;2.53;1.60;;;21.20;70.10;;;;;;4192902;28;20032;-52
2021/08/04 00:33:31;;;;;;;2.33;1.88;;;21.20;70.20;;;;;;4201138;28;20084;-52
2021/08/04 00:35:53;;;;;;;3.90;2.45;;;21.20;70.20;;;;;;4209810;28;20055;-53
2021/08/04 00:38:16;;;;;;;5.32;2.60;;;21.20;70.00;;;;;;4208244;28;20107;-52
2021/08/04 00:40:39;;;;;;;3.33;2.25;;;21.20;69.90;;;;;;4209489;28;20143;-50
2021/08/04 00:43:01;;;;;;;7.57;3.10;;;21.20;70.00;;;;;;4208283;28;20495;-49
2021/08/04 00:45:24;;;;;;;4.18;2.90;;;21.20;70.00;;;;;;4208491;28;20086;-51
2021/08/04 00:47:46;;;;;;;2.60;2.40;;;21.20;70.00;;;;;;4207267;28;20047;-51
2021/08/04 00:50:09;;;;;;;4.80;3.10;;;21.10;69.90;;;;;;4202152;28;20068;-50
2021/08/04 00:52:31;;;;;;;6.88;3.17;;;21.10;69.90;;;;;;4192628;28;20076;-51
2021/08/04 00:54:54;;;;;;;5.63;2.90;;;21.10;69.90;;;;;;4191282;28;20063;-50
2021/08/04 00:57:17;;;;;;;7.00;2.70;;;21.10;70.00;;;;;;4192770;28;20515;-49
2021/08/04 00:59:39;;;;;;;3.45;2.20;;;21.10;70.00;;;;;;4191644;28;20044;-52
2021/08/04 01:02:08;;;;;;;5.55;2.67;;;21.10;69.90;;;;;;4192771;28;20048;-51
2021/08/04 01:04:31;;;;;;;2.38;2.10;;;21.10;69.90;;;;;;4174918;28;20442;-56
2021/08/04 01:07:04;;;;;;;3.42;1.92;;;21.10;69.80;;;;;;4176048;28;20414;-53
2021/08/04 01:09:32;;;;;;;3.15;1.95;;;21.10;69.90;;;;;;4183886;28;20113;-49
2021/08/04 01:12:04;;;;;;;1.90;1.70;;;21.10;69.90;;;;;;4208940;28;20050;-53
2021/08/04 01:14:31;;;;;;;1.70;1.60;;;21.10;69.90;;;;;;4209412;28;20138;-54
2021/08/04 01:16:53;;;;;;;3.70;1.63;;;21.10;70.80;;;;;;4208142;28;20471;-52
2021/08/04 01:19:21;;;;;;;1.48;1.33;;;21.10;70.00;;;;;;4206289;28;20051;-53
2021/08/04 01:21:52;;;;;;;1.73;1.40;;;21.10;70.00;;;;;;4208555;28;20076;-48
2021/08/04 01:24:20;;;;;;;1.25;1.20;;;21.10;70.00;;;;;;4208655;28;20052;-49
2021/08/04 01:26:46;;;;;;;1.10;1.10;;;21.10;70.00;;;;;;4209227;28;20570;-50
2021/08/04 01:29:12;;;;;;;1.40;1.30;;;21.10;70.10;;;;;;4205351;28;20049;-53
2021/08/04 01:31:36;;;;;;;1.25;0.93;;;21.10;70.50;;;;;;4190936;28;20071;-54
2021/08/04 01:33:59;;;;;;;1.85;1.15;;;21.10;70.20;;;;;;4192079;28;20415;-52
2021/08/04 01:36:22;;;;;;;1.10;1.00;;;21.10;70.20;;;;;;4176106;28;20045;-52
2021/08/04 01:38:45;;;;;;;1.00;1.00;;;21.10;70.20;;;;;;4174574;28;20095;-52
2021/08/04 01:41:08;;;;;;;0.80;0.80;;;21.00;70.10;;;;;;4173415;28;20061;-52
2021/08/04 01:43:32;;;;;;;1.35;1.25;;;21.10;70.20;;;;;;4175855;28;20057;-52
2021/08/04 01:45:56;;;;;;;1.20;1.10;;;21.00;70.20;;;;;;4175355;28;20049;-53
2021/08/04 01:48:19;;;;;;;2.40;0.90;;;21.00;70.30;;;;;;4197421;28;20040;-54
2021/08/04 01:50:43;;;;;;;1.10;0.98;;;21.00;70.30;;;;;;4205856;28;20051;-55
2021/08/04 01:53:06;;;;;;;1.25;1.25;;;21.00;70.30;;;;;;4208344;28;20054;-53
2021/08/04 01:55:29;;;;;;;1.10;1.10;;;21.00;70.30;;;;;;4206991;28;20059;-54
2021/08/04 01:57:51;;;;;;;1.58;1.17;;;21.00;70.40;;;;;;4191896;28;20048;-51
2021/08/04 02:00:15;;;;;;;3.53;1.35;;;21.00;70.40;;;;;;4190593;28;20085;-52
2021/08/04 02:02:40;;;;;;;1.05;1.00;;;21.00;70.40;;;;;;4196982;28;20071;-53
2021/08/04 02:05:02;;;;;;;2.00;1.35;;;21.00;70.40;;;;;;4207050;28;20494;-49
2021/08/04 02:07:38;;;;;;;1.58;1.30;;;20.90;70.30;;;;;;4208354;28;20753;-53
2021/08/04 02:10:06;;;;;;;1.13;1.13;;;21.00;70.50;;;;;;4208091;28;20052;-52
2021/08/04 02:12:30;;;;;;;1.20;1.20;;;20.90;70.40;;;;;;4207008;28;20842;-51
2021/08/04 02:14:56;;;;;;;2.30;1.60;;;21.00;70.40;;;;;;4207095;28;20063;-52
2021/08/04 02:17:22;;;;;;;1.17;1.10;;;20.90;70.50;;;;;;4206500;28;20052;-53
2021/08/04 02:19:52;;;;;;;1.60;1.50;;;20.90;70.50;;;;;;4208416;28;20055;-50
2021/08/04 02:22:18;;;;;;;1.27;1.27;;;20.90;70.60;;;;;;4208086;28;20481;-51
2021/08/04 02:24:48;;;;;;;2.38;1.15;;;20.90;70.60;;;;;;4189775;28;20068;-54
2021/08/04 02:27:12;;;;;;;1.20;1.17;;;20.90;70.70;;;;;;4190688;28;20048;-54
2021/08/04 02:29:38;;;;;;;2.95;1.30;;;20.90;70.70;;;;;;4204304;28;20134;-52
2021/08/04 02:32:01;;;;;;;2.00;1.10;;;20.90;70.70;;;;;;4191501;28;20048;-53
2021/08/04 02:34:25;;;;;;;1.25;1.25;;;20.90;71.70;;;;;;4206801;28;20135;-53
2021/08/04 02:36:47;;;;;;;1.33;1.20;;;20.90;70.70;;;;;;4207916;28;20490;-50
2021/08/04 02:39:09;;;;;;;1.13;1.02;;;20.90;70.70;;;;;;4206660;28;20055;-51
2021/08/04 02:41:32;;;;;;;1.10;1.10;;;20.90;70.70;;;;;;4206596;28;20429;-50
2021/08/04 02:43:55;;;;;;;1.10;1.10;;;20.90;70.80;;;;;;4207350;28;20052;-52
2021/08/04 02:46:17;;;;;;;1.63;1.10;;;20.90;70.80;;;;;;4207973;28;20126;-51
2021/08/04 02:48:40;;;;;;;1.10;1.00;;;20.90;70.80;;;;;;4207354;28;20044;-53
2021/08/04 02:51:09;;;;;;;2.35;1.45;;;20.90;70.80;;;;;;4206479;28;20052;-54
2021/08/04 02:53:31;;;;;;;1.38;1.10;;;20.90;70.80;;;;;;4207726;28;20763;-55
2021/08/04 02:55:53;;;;;;;1.00;1.00;;;20.90;71.70;;;;;;4206153;28;20048;-54
2021/08/04 02:58:15;;;;;;;1.10;1.05;;;20.90;70.80;;;;;;4206499;28;20548;-53
2021/08/04 03:00:37;;;;;;;0.90;0.82;;;20.90;70.80;;;;;;4208046;28;20048;-54
2021/08/04 03:03:00;;;;;;;1.42;1.10;;;20.90;70.80;;;;;;4207688;28;20048;-54
2021/08/04 03:05:22;;;;;;;1.33;1.10;;;20.90;70.90;;;;;;4207962;28;20127;-54
2021/08/04 03:07:45;;;;;;;3.45;1.45;;;20.90;70.90;;;;;;4207589;28;20044;-52
2021/08/04 03:10:08;;;;;;;2.45;0.98;;;20.90;71.00;;;;;;4191191;28;20059;-52
2021/08/04 03:12:30;;;;;;;1.67;1.15;;;20.90;71.10;;;;;;4203335;28;20581;-51
2021/08/04 03:14:53;;;;;;;2.58;1.80;;;20.90;71.10;;;;;;4191005;28;20415;-53
2021/08/04 03:17:14;;;;;;;2.90;1.48;;;20.90;71.10;;;;;;4195796;28;20055;-55
2021/08/04 03:19:36;;;;;;;1.60;1.50;;;20.80;71.10;;;;;;4207437;28;20078;-54
2021/08/04 03:21:58;;;;;;;1.90;1.45;;;20.80;71.10;;;;;;4191085;28;20044;-52
2021/08/04 03:24:22;;;;;;;2.80;1.90;;;20.80;71.20;;;;;;4191084;28;20056;-51
2021/08/04 03:26:45;;;;;;;1.95;1.75;;;20.80;71.20;;;;;;4191144;28;20127;-53
2021/08/04 03:29:07;;;;;;;2.28;2.08;;;20.80;71.20;;;;;;4202609;28;20048;-54
2021/08/04 03:31:29;;;;;;;4.55;2.75;;;20.80;71.20;;;;;;4207748;28;20052;-53
2021/08/04 03:33:52;;;;;;;1.95;1.83;;;20.80;71.20;;;;;;4206438;28;20064;-53
2021/08/04 03:36:14;;;;;;;3.20;2.05;;;20.80;71.30;;;;;;4207717;28;20048;-54
2021/08/04 03:38:36;;;;;;;2.00;1.80;;;20.80;71.40;;;;;;4207799;28;20391;-49
2021/08/04 03:41:00;;;;;;;2.30;1.70;;;20.80;71.40;;;;;;4207441;28;20052;-51
2021/08/04 03:43:22;;;;;;;1.52;1.42;;;20.80;71.50;;;;;;4207230;28;20048;-54
2021/08/04 03:45:44;;;;;;;1.73;1.63;;;20.80;71.50;;;;;;4207721;28;20134;-51
2021/08/04 03:48:06;;;;;;;1.40;1.30;;;20.80;71.50;;;;;;4207019;28;20052;-48
2021/08/04 03:50:28;;;;;;;1.73;1.60;;;20.80;71.70;;;;;;4205943;28;20044;-54
2021/08/04 03:52:50;;;;;;;2.10;1.90;;;20.80;71.70;;;;;;4207366;28;20044;-50
2021/08/04 03:55:13;;;;;;;2.22;2.03;;;20.80;71.90;;;;;;4207615;28;20131;-54
2021/08/04 03:57:36;;;;;;;3.03;2.15;;;20.80;72.00;;;;;;4207528;28;20093;-51
2021/08/04 03:59:58;;;;;;;3.67;2.00;;;20.80;72.00;;;;;;4207509;28;20051;-48
2021/08/04 04:02:20;;;;;;;2.85;2.10;;;20.80;72.20;;;;;;4207211;28;20098;-52
2021/08/04 04:04:42;;;;;;;2.75;2.10;;;20.80;72.30;;;;;;4209385;28;20060;-49
2021/08/04 04:07:05;;;;;;;3.63;2.40;;;20.80;72.40;;;;;;4210466;28;20097;-51
2021/08/04 04:09:29;;;;;;;3.47;2.35;;;20.80;72.40;;;;;;4193538;28;20049;-53
2021/08/04 04:11:51;;;;;;;2.88;2.20;;;20.80;72.50;;;;;;4193394;28;20076;-52
2021/08/04 04:14:14;;;;;;;4.57;2.40;;;20.80;73.40;;;;;;4192121;28;20118;-50
2021/08/04 04:16:36;;;;;;;2.95;1.73;;;20.80;72.50;;;;;;4193262;28;20060;-52
2021/08/04 04:18:59;;;;;;;2.85;2.10;;;20.80;72.60;;;;;;4209865;28;20252;-54
2021/08/04 04:21:21;;;;;;;3.97;2.33;;;20.80;72.50;;;;;;4210394;28;20051;-49
2021/08/04 04:23:43;;;;;;;4.63;2.75;;;20.80;72.60;;;;;;4209732;28;20423;-52
2021/08/04 04:26:05;;;;;;;3.22;2.70;;;20.80;72.60;;;;;;4209853;28;20418;-47
2021/08/04 04:28:27;;;;;;;3.28;2.63;;;20.80;72.60;;;;;;4210127;28;20136;-50
2021/08/04 04:30:50;;;;;;;3.17;2.80;;;20.80;72.70;;;;;;4209965;28;20048;-51
2021/08/04 04:33:12;;;;;;;5.85;2.55;;;20.80;72.60;;;;;;4209314;28;20117;-52
2021/08/04 04:35:34;;;;;;;4.45;2.90;;;20.80;72.60;;;;;;4210091;28;20052;-52
2021/08/04 04:37:56;;;;;;;2.83;2.55;;;20.80;72.60;;;;;;4209885;28;20089;-52
2021/08/04 04:40:18;;;;;;;3.08;2.00;;;20.80;72.60;;;;;;4209784;28;20457;-49
2021/08/04 04:42:40;;;;;;;7.10;2.10;;;20.80;72.60;;;;;;4209813;28;20047;-51
2021/08/04 04:45:03;;;;;;;2.53;2.30;;;20.80;72.60;;;;;;4209870;28;20059;-51
2021/08/04 04:47:27;;;;;;;3.70;2.45;;;20.80;72.60;;;;;;4209288;28;20040;-54
2021/08/04 04:49:49;;;;;;;3.08;2.25;;;20.80;72.60;;;;;;4208555;28;20056;-53
2021/08/04 04:52:11;;;;;;;2.78;2.58;;;20.80;72.60;;;;;;4209335;28;20127;-52
2021/08/04 04:54:33;;;;;;;3.35;2.75;;;20.80;72.60;;;;;;4209453;28;20143;-53
2021/08/04 04:56:55;;;;;;;3.90;3.22;;;20.80;72.60;;;;;;4209425;28;20142;-49
2021/08/04 04:59:17;;;;;;;3.10;2.53;;;20.80;72.60;;;;;;4209437;28;20056;-52
2021/08/04 05:01:39;;;;;;;6.30;3.33;;;20.80;72.60;;;;;;4208437;28;20514;-52
2021/08/04 05:04:03;;;;;;;3.40;2.97;;;20.80;72.60;;;;;;4202420;28;20502;-51
2021/08/04 05:06:25;;;;;;;4.07;3.00;;;20.80;72.70;;;;;;4191989;28;20048;-51
2021/08/04 05:08:47;;;;;;;3.47;3.17;;;20.80;72.70;;;;;;4209235;28;20052;-50
2021/08/04 05:11:10;;;;;;;4.68;3.33;;;20.80;72.80;;;;;;4209592;28;20055;-54
2021/08/04 05:13:32;;;;;;;4.13;3.25;;;20.80;72.90;;;;;;4209289;28;20494;-54
2021/08/04 05:15:54;;;;;;;3.50;3.10;;;20.80;72.90;;;;;;4209385;28;20058;-52
2021/08/04 05:18:16;;;;;;;4.75;3.28;;;20.70;72.80;;;;;;4191213;28;20431;-50
2021/08/04 05:20:41;;;;;;;4.60;3.70;;;20.80;73.30;;;;;;4192449;28;20040;-54
2021/08/04 05:23:03;;;;;;;4.47;3.35;;;20.80;73.40;;;;;;4192385;28;20516;-54
2021/08/04 05:25:27;;;;;;;4.65;3.63;;;20.80;73.50;;;;;;4192415;28;20483;-48
2021/08/04 05:27:49;;;;;;;5.38;3.33;;;20.80;73.40;;;;;;4192429;28;20491;-49
2021/08/04 05:30:15;;;;;;;6.47;3.30;;;20.80;73.60;;;;;;4195840;28;20047;-49
2021/08/04 05:32:37;;;;;;;5.40;3.50;;;20.80;73.40;;;;;;4208071;28;20391;-52
2021/08/04 05:34:59;;;;;;;4.60;2.80;;;20.80;73.30;;;;;;4192241;28;20051;-47
2021/08/04 05:37:23;;;;;;;3.13;2.72;;;20.80;73.40;;;;;;4199365;28;20040;-55
2021/08/04 05:39:45;;;;;;;3.50;2.78;;;20.80;73.40;;;;;;4208746;28;20056;-53
2021/08/04 05:42:07;;;;;;;3.88;2.90;;;20.80;73.50;;;;;;4208876;28;20127;-53
2021/08/04 05:44:29;;;;;;;2.97;2.33;;;20.80;73.40;;;;;;4209048;28;20040;-57
2021/08/04 05:46:52;;;;;;;4.72;2.97;;;20.90;74.40;;;;;;4202697;28;20044;-50
2021/08/04 05:49:14;;;;;;;3.70;3.40;;;20.90;75.30;;;;;;4192162;28;20501;-52
2021/08/04 05:51:36;;;;;;;3.47;2.75;;;20.90;74.30;;;;;;4192182;28;20057;-52
2021/08/04 05:54:00;;;;;;;5.05;2.97;;;20.90;74.00;;;;;;4203775;28;20754;-49
2021/08/04 05:56:22;;;;;;;3.90;2.60;;;20.80;73.80;;;;;;4208479;28;20044;-50
2021/08/04 05:58:44;;;;;;;4.00;3.17;;;20.80;73.80;;;;;;4208883;28;20747;-50
2021/08/04 06:01:07;;;;;;;2.58;2.38;;;20.80;74.70;;;;;;4208592;28;20410;-53
2021/08/04 06:03:29;;;;;;;2.53;2.10;;;20.80;73.70;;;;;;4208371;28;20059;-51
2021/08/04 06:05:51;;;;;;;2.83;2.15;;;20.80;73.70;;;;;;4208032;28;20545;-53
2021/08/04 06:08:13;;;;;;;2.15;2.03;;;20.80;73.70;;;;;;4208028;28;20146;-52
2021/08/04 06:10:37;;;;;;;2.80;2.60;;;20.80;73.70;;;;;;4208279;28;20044;-48
2021/08/04 06:12:59;;;;;;;2.95;2.50;;;20.70;73.60;;;;;;4208654;28;20059;-50
2021/08/04 06:15:40;;;;;;;3.60;2.42;;;20.70;73.50;;;;;;4191529;28;20122;-52
2021/08/04 06:18:02;;;;;;;2.60;2.10;;;20.80;73.60;;;;;;4191378;28;20051;-50
2021/08/04 06:20:24;;;;;;;2.13;2.03;;;20.70;73.60;;;;;;4191518;28;20052;-52
2021/08/04 06:22:47;;;;;;;2.00;1.90;;;20.70;73.60;;;;;;4194646;28;20048;-53
2021/08/04 06:25:10;;;;;;;2.40;2.20;;;20.80;73.70;;;;;;4207854;28;20044;-50
2021/08/04 06:27:34;;;;;;;4.50;2.42;;;20.70;73.60;;;;;;4208026;28;20666;-52
2021/08/04 06:29:56;;;;;;;2.67;2.10;;;20.70;73.60;;;;;;4208279;28;20414;-49
2021/08/04 06:32:18;;;;;;;3.70;1.83;;;20.70;73.60;;;;;;4207943;28;20048;-50
2021/08/04 06:34:40;;;;;;;3.72;1.70;;;20.70;73.60;;;;;;4208116;28;20105;-49
2021/08/04 06:37:03;;;;;;;2.15;2.05;;;20.70;74.20;;;;;;4208195;28;20048;-54
2021/08/04 06:39:26;;;;;;;1.80;1.70;;;20.80;89.20;;;;;;4207048;28;20476;-53
2021/08/04 06:41:50;;;;;;;9.68;2.92;;;20.80;89.80;;;;;;4208185;28;20075;-53
2021/08/04 06:44:14;;;;;;;11.20;2.30;;;20.80;87.50;;;;;;4208212;28;20048;-53
2021/08/04 06:46:38;;;;;;;2.05;1.70;;;20.80;85.70;;;;;;4207868;28;20040;-49
2021/08/04 06:49:00;;;;;;;1.85;1.67;;;20.80;83.30;;;;;;4207502;28;20098;-51
2021/08/04 06:51:22;;;;;;;4.68;1.63;;;20.80;81.80;;;;;;4208207;28;20453;-49
2021/08/04 06:53:48;;;;;;;1.33;1.17;;;20.80;80.90;;;;;;4207949;28;20510;-51
2021/08/04 06:56:10;;;;;;;1.42;1.27;;;20.80;80.00;;;;;;4207613;28;20555;-50
2021/08/04 06:58:33;;;;;;;1.15;1.15;;;20.70;79.30;;;;;;4207897;28;20047;-52
2021/08/04 07:00:56;;;;;;;1.30;1.30;;;20.70;79.10;;;;;;4207814;28;20051;-50
2021/08/04 07:03:18;;;;;;;1.13;1.13;;;20.80;78.50;;;;;;4207984;28;20478;-48
2021/08/04 07:05:40;;;;;;;1.58;1.48;;;20.80;78.30;;;;;;4207353;28;20071;-48
2021/08/04 07:08:03;;;;;;;1.60;1.20;;;20.80;77.90;;;;;;4207235;28;20074;-51
2021/08/04 07:10:34;;;;;;;1.73;1.63;;;20.70;77.50;;;;;;4207448;28;20048;-52
2021/08/04 07:12:56;;;;;;;1.10;1.10;;;20.80;77.40;;;;;;4207640;28;20055;-53
2021/08/04 07:15:18;;;;;;;2.63;1.27;;;20.80;77.30;;;;;;4207703;28;20052;-55
2021/08/04 07:17:47;;;;;;;1.13;1.10;;;20.80;77.00;;;;;;4207710;28;20048;-53
2021/08/04 07:20:10;;;;;;;1.60;1.50;;;20.80;77.00;;;;;;4207137;28;20048;-49
2021/08/04 07:22:32;;;;;;;1.10;0.95;;;20.80;76.80;;;;;;4207922;28;20056;-52
2021/08/04 07:24:55;;;;;;;0.80;0.77;;;20.80;76.90;;;;;;4207581;28;20044;-49
2021/08/04 07:27:16;;;;;;;1.75;1.05;;;20.80;76.80;;;;;;4207356;28;20048;-50
2021/08/04 07:29:38;;;;;;;2.45;1.25;;;20.80;76.70;;;;;;4207403;28;20101;-50
2021/08/04 07:32:01;;;;;;;0.70;0.70;;;20.80;76.30;;;;;;4207883;28;20047;-50
2021/08/04 07:34:24;;;;;;;1.80;0.85;;;20.80;76.00;;;;;;4207231;28;20052;-51
2021/08/04 07:36:46;;;;;;;0.98;0.90;;;20.90;75.90;;;;;;4207746;28;20139;-47
2021/08/04 07:39:08;;;;;;;0.90;0.90;;;20.90;75.80;;;;;;4209353;28;20437;-48
2021/08/04 07:41:30;;;;;;;1.17;0.65;;;20.90;75.00;;;;;;4210949;28;20406;-49
2021/08/04 07:43:53;;;;;;;0.93;0.63;;;21.00;74.80;;;;;;4210525;28;20052;-48
2021/08/04 07:46:15;;;;;;;1.23;0.70;;;21.10;74.20;;;;;;4210702;28;21359;-49
2021/08/04 07:48:36;;;;;;;0.57;0.57;;;21.10;73.80;;;;;;4209010;28;20050;-49
2021/08/04 07:51:01;;;;;;;1.65;0.73;;;21.20;73.70;;;;;;4210548;28;20048;-47
2021/08/04 07:53:24;;;;;;;1.08;0.98;;;21.20;73.30;;;;;;4210709;28;20098;-50
2021/08/04 07:55:46;;;;;;;0.93;0.70;;;21.30;73.00;;;;;;4210128;28;20135;-49
2021/08/04 07:58:08;;;;;;;0.70;0.70;;;21.30;73.10;;;;;;4210509;28;20380;-48
2021/08/04 08:00:30;;;;;;;2.08;0.70;;;21.40;72.30;;;;;;4210604;28;20110;-49
2021/08/04 08:02:52;;;;;;;1.05;0.88;;;21.40;71.80;;;;;;4210984;28;20421;-54
2021/08/04 08:05:15;;;;;;;0.60;0.57;;;21.50;71.80;;;;;;4209922;28;20058;-52
2021/08/04 08:07:45;;;;;;;0.65;0.65;;;21.40;71.20;;;;;;4209224;28;20486;-48
2021/08/04 08:10:08;;;;;;;1.23;0.80;;;21.40;70.90;;;;;;4209548;28;20048;-48
2021/08/04 08:12:31;;;;;;;1.20;0.90;;;21.50;70.80;;;;;;4210374;28;20052;-48
2021/08/04 08:14:53;;;;;;;0.63;0.63;;;21.50;71.00;;;;;;4210009;28;20133;-46
2021/08/04 08:17:16;;;;;;;0.70;0.70;;;21.40;70.90;;;;;;4209544;28;20387;-51
2021/08/04 08:19:39;;;;;;;0.75;0.63;;;21.40;70.80;;;;;;4209491;28;20063;-48
2021/08/04 08:22:01;;;;;;;0.52;0.52;;;21.40;70.60;;;;;;4209749;28;20565;-49
2021/08/04 08:24:25;;;;;;;2.53;0.90;;;21.40;70.90;;;;;;4210284;28;20052;-47
2021/08/04 08:26:47;;;;;;;2.03;0.73;;;21.40;70.80;;;;;;4194727;28;20052;-47
2021/08/04 08:29:10;;;;;;;1.05;0.95;;;21.40;70.90;;;;;;4193094;28;20126;-49
2021/08/04 08:31:32;;;;;;;1.30;0.70;;;21.40;71.20;;;;;;4193411;28;20064;-52
2021/08/04 08:33:54;;;;;;;1.77;0.75;;;21.40;71.00;;;;;;4199123;28;20047;-47
2021/08/04 08:36:16;;;;;;;0.90;0.90;;;21.40;71.10;;;;;;4209284;28;20551;-49
2021/08/04 08:38:38;;;;;;;0.95;0.93;;;21.50;71.20;;;;;;4209815;28;20054;-47
2021/08/04 08:41:02;;;;;;;0.70;0.70;;;21.50;71.30;;;;;;4208115;28;20059;-50
2021/08/04 08:43:24;;;;;;;1.55;0.80;;;21.60;70.30;;;;;;4209649;28;20422;-49
2021/08/04 08:45:49;;;;;;;0.80;0.80;;;21.60;70.40;;;;;;4192733;28;20139;-48
2021/08/04 08:48:15;;;;;;;1.75;0.80;;;21.60;70.30;;;;;;4192884;28;20093;-51
2021/08/04 08:50:40;;;;;;;1.20;0.82;;;21.60;70.10;;;;;;4192463;28;20173;-48
2021/08/04 08:53:02;;;;;;;2.53;0.93;;;21.70;70.20;;;;;;4192885;28;20040;-48
2021/08/04 08:55:27;;;;;;;3.63;1.27;;;21.70;69.20;;;;;;4207447;28;20130;-50
2021/08/04 08:57:50;;;;;;;0.90;0.90;;;21.80;69.20;;;;;;4209147;28;20101;-49
2021/08/04 09:00:14;;;;;;;1.83;0.90;;;21.90;69.00;;;;;;4209332;28;20056;-53
2021/08/04 09:02:36;;;;;;;0.73;0.73;;;21.80;68.70;;;;;;4209493;28;20628;-56
2021/08/04 09:05:00;;;;;;;1.05;0.88;;;21.90;69.60;;;;;;4208371;28;20098;-48
2021/08/04 09:07:31;;;;;;;1.02;0.80;;;21.90;68.40;;;;;;4209430;28;20048;-49
2021/08/04 09:09:53;;;;;;;0.90;0.82;;;21.90;68.40;;;;;;4209169;28;20044;-47
2021/08/04 09:12:16;;;;;;;1.50;0.73;;;21.90;68.30;;;;;;4209446;28;20123;-50
2021/08/04 09:14:40;;;;;;;0.93;0.93;;;22.00;68.40;;;;;;4199044;28;20052;-48
2021/08/04 09:17:07;;;;;;;0.60;0.60;;;22.00;68.30;;;;;;4192323;28;20483;-51
2021/08/04 09:19:29;;;;;;;0.88;0.88;;;22.00;68.00;;;;;;4192683;28;20048;-48
2021/08/04 09:22:12;;;;;;;2.45;1.30;;;22.00;68.20;;;;;;4197643;28;20063;-49
2021/08/04 09:25:01;;;;;;;1.50;1.13;;;22.00;68.20;;;;;;4208731;28;20052;-49
2021/08/04 09:27:39;;;;;;;0.90;0.90;;;22.00;67.90;;;;;;4207153;28;20056;-45
2021/08/04 09:30:03;;;;;;;0.80;0.80;;;22.00;67.90;;;;;;4208382;28;20131;-49
2021/08/04 09:32:26;;;;;;;1.35;1.08;;;22.10;67.90;;;;;;4192555;28;20048;-49
2021/08/04 09:34:48;;;;;;;1.00;0.93;;;22.10;67.60;;;;;;4192026;28;20079;-49
2021/08/04 09:37:12;;;;;;;1.70;0.85;;;22.10;67.50;;;;;;4209009;28;20048;-47
2021/08/04 09:39:35;;;;;;;4.07;1.13;;;22.10;67.40;;;;;;4209006;28;20512;-51
2021/08/04 09:41:57;;;;;;;2.08;1.10;;;22.20;67.50;;;;;;4209011;28;20071;-49
2021/08/04 09:44:19;;;;;;;2.25;1.20;;;22.20;67.30;;;;;;4200157;28;20392;-47
2021/08/04 09:46:43;;;;;;;1.58;0.95;;;22.20;67.20;;;;;;4191875;28;20049;-49
2021/08/04 09:49:12;;;;;;;1.50;1.00;;;22.10;67.20;;;;;;4191989;28;20048;-48
2021/08/04 09:51:34;;;;;;;1.15;1.10;;;22.20;67.10;;;;;;4191950;28;20049;-50
2021/08/04 09:54:08;;;;;;;0.90;0.90;;;22.30;67.10;;;;;;4191541;28;20044;-50
2021/08/04 09:56:29;;;;;;;0.80;0.80;;;22.30;66.80;;;;;;4175235;28;20045;-54
2021/08/04 09:58:54;;;;;;;1.00;1.00;;;22.30;67.30;;;;;;4175620;28;20132;-52
2021/08/04 10:01:19;;;;;;;1.25;1.15;;;22.30;66.20;;;;;;4175014;28;20048;-51
2021/08/04 10:04:00;;;;;;;5.57;1.15;;;22.40;66.00;;;;;;4183996;28;20058;-52
2021/08/04 10:06:27;;;;;;;1.00;1.00;;;22.30;66.00;;;;;;4208073;28;20059;-52
2021/08/04 10:08:49;;;;;;;1.35;1.05;;;22.40;66.10;;;;;;4208711;28;20047;-48
2021/08/04 10:11:13;;;;;;;2.25;1.08;;;22.40;66.00;;;;;;4209430;28;20131;-49
2021/08/04 10:13:36;;;;;;;1.33;1.23;;;22.50;65.80;;;;;;4208229;28;20052;-47
2021/08/04 10:16:01;;;;;;;1.13;1.10;;;22.50;65.60;;;;;;4206785;27;20414;-50
2021/08/04 10:18:25;;;;;;;1.60;1.20;;;22.50;65.40;;;;;;4208373;27;20134;-48
2021/08/04 10:20:51;;;;;;;1.20;0.80;;;22.50;65.20;;;;;;4207836;27;20475;-50
2021/08/04 10:23:16;;;;;;;2.15;1.13;;;22.60;64.80;;;;;;4207791;28;20040;-47
2021/08/04 10:25:38;;;;;;;2.20;1.13;;;22.60;65.20;;;;;;4206520;28;20071;-51
2021/08/04 10:28:02;;;;;;;0.77;0.77;;;22.60;64.80;;;;;;4207881;28;20048;-48
2021/08/04 10:30:24;;;;;;;2.33;1.55;;;22.50;64.60;;;;;;4196392;28;20048;-47
2021/08/04 10:32:47;;;;;;;3.28;1.17;;;22.60;64.60;;;;;;4197297;28;20051;-46
2021/08/04 10:35:10;;;;;;;1.30;1.20;;;22.60;64.60;;;;;;4207906;28;20509;-49
2021/08/04 10:37:34;;;;;;;1.23;0.95;;;22.50;65.10;;;;;;4207936;28;20052;-47
2021/08/04 10:39:57;;;;;;;1.90;1.42;;;22.50;65.30;;;;;;4207885;28;20105;-48
2021/08/04 10:42:20;;;;;;;1.15;1.08;;;22.50;65.30;;;;;;4207980;28;20052;-48
2021/08/04 10:44:44;;;;;;;1.95;1.52;;;22.50;65.40;;;;;;4207210;28;20054;-46
2021/08/04 10:47:06;;;;;;;2.92;1.40;;;22.50;65.60;;;;;;4207896;28;20486;-50
2021/08/04 10:49:31;;;;;;;2.92;2.63;;;22.40;65.70;;;;;;4208175;28;20055;-47
2021/08/04 10:52:13;;;;;;;4.30;1.50;;;22.40;65.60;;;;;;4207700;28;20486;-52
2021/08/04 10:54:36;;;;;;;4.07;1.55;;;22.40;65.60;;;;;;4191576;28;20052;-49
2021/08/04 10:57:09;;;;;;;1.65;1.20;;;22.30;65.30;;;;;;4174435;28;20037;-47
2021/08/04 10:59:31;;;;;;;2.08;1.85;;;22.30;66.20;;;;;;4195869;28;20587;-49
2021/08/04 11:01:56;;;;;;;2.15;1.40;;;22.30;65.30;;;;;;4206321;28;20044;-48
2021/08/04 11:04:53;;;;;;;1.38;1.27;;;22.30;65.10;;;;;;4194950;28;20052;-49
2021/08/04 11:07:17;;;;;;;2.65;1.45;;;22.30;65.00;;;;;;4191094;28;20048;-49
2021/08/04 11:09:42;;;;;;;1.88;1.40;;;22.30;65.00;;;;;;4191045;28;20465;-49
2021/08/04 11:12:05;;;;;;;1.50;1.40;;;22.30;65.00;;;;;;4191237;28;20060;-49
2021/08/04 11:14:53;;;;;;;4.55;1.58;;;22.30;64.80;;;;;;4196813;28;20064;-50
2021/08/04 11:17:18;;;;;;;6.85;1.80;;;22.30;64.60;;;;;;4188188;28;20044;-48
2021/08/04 11:20:09;;;;;;;3.50;1.30;;;22.40;64.50;;;;;;4194271;28;21005;-52
2021/08/04 11:22:41;;;;;;;1.88;1.50;;;22.40;64.40;;;;;;4194941;28;20471;-51
2021/08/04 11:25:07;;;;;;;4.13;1.70;;;22.40;64.30;;;;;;4210493;28;20048;-53
2021/08/04 11:27:33;;;;;;;4.22;1.88;;;22.40;64.40;;;;;;4210531;28;20406;-56
2021/08/04 11:29:57;;;;;;;2.05;1.20;;;22.40;64.20;;;;;;4202572;28;20127;-51
2021/08/04 11:32:22;;;;;;;1.45;1.35;;;22.40;64.30;;;;;;4194018;28;20051;-48
2021/08/04 11:34:45;;;;;;;1.38;1.33;;;22.50;64.30;;;;;;4193548;28;20045;-50
2021/08/04 11:37:07;;;;;;;1.50;1.40;;;22.50;64.30;;;;;;4194397;28;20056;-51
2021/08/04 11:39:29;;;;;;;3.90;1.25;;;22.50;64.20;;;;;;4193821;28;20069;-51
2021/08/04 11:41:53;;;;;;;3.40;1.17;;;22.50;64.20;;;;;;4194379;28;20072;-51
2021/08/04 11:44:23;;;;;;;1.45;1.20;;;22.50;64.10;;;;;;4210504;28;20081;-48
2021/08/04 11:46:47;;;;;;;3.23;0.90;;;22.50;63.80;;;;;;4210923;28;20113;-49
2021/08/04 11:49:12;;;;;;;1.15;1.05;;;22.50;64.80;;;;;;4210130;28;20141;-50
2021/08/04 11:51:37;;;;;;;3.80;1.40;;;22.50;63.90;;;;;;4193704;28;20052;-47
2021/08/04 11:54:00;;;;;;;2.13;1.20;;;22.50;63.80;;;;;;4193221;28;20056;-57
2021/08/04 11:56:22;;;;;;;1.77;1.08;;;22.50;63.80;;;;;;4177223;28;20053;-49
2021/08/04 11:58:45;;;;;;;1.70;1.35;;;22.60;63.80;;;;;;4181735;28;20047;-46
2021/08/04 12:01:17;;;;;;;1.13;1.02;;;22.60;63.70;;;;;;4184098;28;20037;-50
2021/08/04 12:03:39;;;;;;;2.80;1.17;;;22.60;63.70;;;;;;4193708;28;20127;-52
2021/08/04 12:06:14;;;;;;;1.98;1.60;;;22.60;63.70;;;;;;4176920;28;20446;-51
2021/08/04 12:08:36;;;;;;;1.30;1.20;;;22.60;63.70;;;;;;4177094;28;20048;-47
2021/08/04 12:10:58;;;;;;;2.05;1.38;;;22.60;63.60;;;;;;4177133;28;20057;-50
2021/08/04 12:13:20;;;;;;;1.70;1.60;;;22.60;64.80;;;;;;4181788;28;20044;-50
2021/08/04 12:15:59;;;;;;;1.40;1.20;;;22.60;63.70;;;;;;4193505;28;20119;-51
2021/08/04 12:18:21;;;;;;;1.60;1.45;;;22.60;63.70;;;;;;4193341;28;20716;-50
2021/08/04 12:20:43;;;;;;;3.33;1.42;;;22.60;63.50;;;;;;4193105;28;20052;-48
2021/08/04 12:23:07;;;;;;;1.70;1.05;;;22.70;64.30;;;;;;4192925;28;20489;-48
2021/08/04 12:25:30;;;;;;;1.10;1.10;;;22.70;63.20;;;;;;4209141;28;20056;-51
2021/08/04 12:27:54;;;;;;;1.58;1.27;;;22.70;63.20;;;;;;4209968;28;20091;-51
2021/08/04 12:30:25;;;;;;;2.05;1.50;;;22.70;62.90;;;;;;4209746;28;20050;-48